createdAt,value
2019-03-19T00:02:21.036Z,23.07
2019-03-19T00:04:47.676Z,30.03
2019-03-19T00:07:14.289Z,21.63
2019-03-19T00:09:41.042Z,23.90
2019-03-19T00:12:07.586Z,17.63
2019-03-19T00:14:34.266Z,22.07
2019-03-19T00:17:00.997Z,23.40
2019-03-19T00:19:27.675Z,20.33
2019-03-19T00:21:54.366Z,23.60
2019-03-19T00:24:21.118Z,17.40
2019-03-19T00:26:47.722Z,16.57
2019-03-19T00:29:14.284Z,19.07
2019-03-19T00:31:40.942Z,24.63
2019-03-19T00:34:07.958Z,17.13
2019-03-19T00:36:34.494Z,17.13
2019-03-19T00:39:01.118Z,20.77
2019-03-19T00:41:27.821Z,21.43
2019-03-19T00:43:54.468Z,20.57
2019-03-19T00:46:21.194Z,18.80
2019-03-19T00:48:48.154Z,20.20
2019-03-19T00:51:14.772Z,20.63
2019-03-19T00:53:41.388Z,19.13
2019-03-19T00:56:08.030Z,17.40
2019-03-19T00:58:34.761Z,22.33
2019-03-19T01:01:01.534Z,23.53
2019-03-19T01:03:28.133Z,16.27
2019-03-19T01:05:54.850Z,20.93
2019-03-19T01:08:21.826Z,21.07
2019-03-19T01:10:48.510Z,18.77
2019-03-19T01:13:15.176Z,21.10
2019-03-19T01:15:41.796Z,21.87
2019-03-19T01:18:08.570Z,22.27
2019-03-19T01:20:35.180Z,16.70
2019-03-19T01:23:02.048Z,15.73
2019-03-19T01:25:29.817Z,16.37
2019-03-19T01:27:56.722Z,15.80
2019-03-19T01:30:23.426Z,23.33
2019-03-19T01:32:49.934Z,22.70
2019-03-19T01:35:17.328Z,24.30
2019-03-19T01:37:44.008Z,19.60
2019-03-19T01:40:11.563Z,16.27
2019-03-19T01:42:39.317Z,19.60
2019-03-19T01:45:08.474Z,20.53
2019-03-19T01:47:35.088Z,21.03
2019-03-19T01:50:02.008Z,19.77
2019-03-19T01:52:28.708Z,25.93
2019-03-19T01:54:55.610Z,20.23
2019-03-19T01:57:22.218Z,19.87
2019-03-19T01:59:48.912Z,28.67
2019-03-19T02:02:15.537Z,22.13
2019-03-19T02:04:42.154Z,18.03
2019-03-19T02:07:08.794Z,22.93
2019-03-19T02:09:35.844Z,16.70
2019-03-19T02:12:03.056Z,17.87
2019-03-19T02:14:29.674Z,21.97
2019-03-19T02:16:56.372Z,15.57
2019-03-19T02:19:23.061Z,21.03
2019-03-19T02:21:49.888Z,18.43
2019-03-19T02:24:16.502Z,16.37
2019-03-19T02:26:43.136Z,13.13
2019-03-19T02:29:10.839Z,17.03
2019-03-19T02:31:37.638Z,21.70
2019-03-19T02:34:04.675Z,16.57
2019-03-19T02:36:31.522Z,18.67
2019-03-19T02:38:59.152Z,18.33
2019-03-19T02:41:25.980Z,17.07
2019-03-19T02:43:52.611Z,25.23
2019-03-19T02:46:19.231Z,24.80
2019-03-19T02:48:45.924Z,13.57
2019-03-19T02:51:12.609Z,20.47
2019-03-19T02:53:39.340Z,27.20
2019-03-19T02:56:05.971Z,22.53
2019-03-19T02:58:32.609Z,17.87
2019-03-19T03:00:59.700Z,15.27
2019-03-19T03:03:26.275Z,19.33
2019-03-19T03:05:53.075Z,18.60
2019-03-19T03:08:19.784Z,22.30
2019-03-19T03:10:46.396Z,24.90
2019-03-19T03:13:13.478Z,16.60
2019-03-19T03:15:40.118Z,20.10
2019-03-19T03:18:06.739Z,25.50
2019-03-19T03:20:33.483Z,18.73
2019-03-19T03:23:00.232Z,15.93
2019-03-19T03:25:26.985Z,15.40
2019-03-19T03:27:53.652Z,19.27
2019-03-19T03:30:23.335Z,21.30
2019-03-19T03:32:50.235Z,23.87
2019-03-19T03:35:17.218Z,22.13
2019-03-19T03:37:44.166Z,20.57
2019-03-19T03:40:13.532Z,16.60
2019-03-19T03:42:42.819Z,21.70
2019-03-19T03:45:13.176Z,21.20
2019-03-19T03:47:39.908Z,24.03
2019-03-19T03:50:09.229Z,20.33
2019-03-19T03:52:35.845Z,19.43
2019-03-19T03:55:04.756Z,21.03
2019-03-19T03:57:31.569Z,20.10
2019-03-19T03:59:58.286Z,19.93
2019-03-19T04:02:25.048Z,23.97
2019-03-19T04:04:51.668Z,16.80
2019-03-19T04:07:18.516Z,20.93
2019-03-19T04:09:45.061Z,24.07
2019-03-19T04:12:11.895Z,22.93
2019-03-19T04:14:38.514Z,21.97
2019-03-19T04:17:06.430Z,20.67
2019-03-19T04:19:33.039Z,18.97
2019-03-19T04:21:59.666Z,21.40
2019-03-19T04:24:26.273Z,24.73
2019-03-19T04:26:52.983Z,20.83
2019-03-19T04:29:19.692Z,25.43
2019-03-19T04:31:46.440Z,19.07
2019-03-19T04:34:13.201Z,19.47
2019-03-19T04:36:39.813Z,23.10
2019-03-19T04:39:06.541Z,16.57
2019-03-19T04:41:33.055Z,20.80
2019-03-19T04:43:59.767Z,18.13
2019-03-19T04:46:26.465Z,17.47
2019-03-19T04:48:53.139Z,21.43
2019-03-19T04:51:19.755Z,20.13
2019-03-19T04:53:47.613Z,14.47
2019-03-19T04:56:14.271Z,24.17
2019-03-19T04:58:40.879Z,20.73
2019-03-19T05:01:07.519Z,17.30
2019-03-19T05:03:34.173Z,16.00
2019-03-19T05:06:01.015Z,25.53
2019-03-19T05:08:27.626Z,17.83
2019-03-19T05:10:54.275Z,19.27
2019-03-19T05:13:21.014Z,20.93
2019-03-19T05:15:49.383Z,19.40
2019-03-19T05:18:16.261Z,20.23
2019-03-19T05:20:42.931Z,27.97
2019-03-19T05:23:09.587Z,17.33
2019-03-19T05:25:36.209Z,17.77
2019-03-19T05:28:03.468Z,17.70
2019-03-19T05:30:30.093Z,19.03
2019-03-19T05:32:56.801Z,23.17
2019-03-19T05:35:23.419Z,21.17
2019-03-19T05:37:50.090Z,22.57
2019-03-19T05:40:16.880Z,33.60
2019-03-19T05:42:43.503Z,16.63
2019-03-19T05:45:13.721Z,17.03
2019-03-19T05:47:40.858Z,16.17
2019-03-19T05:50:15.713Z,18.83
2019-03-19T05:52:42.583Z,16.37
2019-03-19T05:55:10.120Z,18.30
2019-03-19T05:57:48.844Z,22.13
2019-03-19T06:00:16.224Z,24.40
2019-03-19T06:02:42.851Z,22.03
2019-03-19T06:05:13.807Z,24.93
2019-03-19T06:07:40.488Z,21.33
2019-03-19T06:10:11.633Z,29.43
2019-03-19T06:12:38.577Z,24.10
2019-03-19T06:15:08.271Z,24.53
2019-03-19T06:17:35.007Z,21.63
2019-03-19T06:20:03.052Z,27.47
2019-03-19T06:22:29.695Z,25.70
2019-03-19T06:24:56.446Z,21.43
2019-03-19T06:27:23.061Z,19.03
2019-03-19T06:29:49.681Z,27.40
2019-03-19T06:32:16.414Z,40.17
2019-03-19T06:34:43.264Z,31.90
2019-03-19T06:37:09.979Z,29.67
2019-03-19T06:39:36.637Z,23.47
2019-03-19T06:42:03.379Z,25.50
2019-03-19T06:44:30.148Z,30.67
2019-03-19T06:46:56.987Z,24.30
2019-03-19T06:49:23.571Z,26.13
2019-03-19T06:51:50.323Z,19.73
2019-03-19T06:54:17.079Z,21.77
2019-03-19T06:56:43.882Z,22.13
2019-03-19T06:59:10.541Z,17.77
2019-03-19T07:01:37.205Z,18.37
2019-03-19T07:04:03.940Z,19.20
2019-03-19T07:06:33.173Z,26.93
2019-03-19T07:09:05.859Z,22.03
2019-03-19T07:11:34.568Z,29.53
2019-03-19T07:14:01.484Z,22.50
2019-03-19T07:16:28.149Z,20.53
2019-03-19T07:18:54.775Z,19.73
2019-03-19T07:21:21.390Z,21.67
2019-03-19T07:23:48.329Z,25.23
2019-03-19T07:26:15.158Z,21.10
2019-03-19T07:28:42.149Z,21.20
2019-03-19T07:31:08.965Z,22.73
2019-03-19T10:38:42.250Z,15.93
2019-03-19T10:41:08.932Z,14.37
2019-03-19T10:43:35.718Z,16.03
2019-03-19T10:46:02.426Z,14.47
2019-03-19T10:48:29.000Z,11.37
2019-03-19T10:50:55.706Z,9.70
2019-03-19T10:53:22.388Z,10.50
2019-03-19T10:55:50.100Z,12.90
2019-03-19T10:58:17.760Z,11.73
2019-03-19T11:00:44.486Z,11.47
2019-03-19T11:03:11.193Z,15.03
2019-03-19T11:05:37.924Z,7.23
2019-03-19T11:08:04.734Z,8.13
2019-03-19T11:10:31.509Z,8.77
2019-03-19T11:12:58.344Z,10.97
2019-03-19T11:15:25.890Z,16.17
2019-03-19T11:17:52.784Z,20.93
2019-03-19T11:20:20.014Z,15.40
2019-03-19T11:22:47.344Z,13.17
2019-03-19T11:25:18.300Z,11.37
2019-03-19T11:27:46.265Z,10.33
2019-03-19T11:30:18.127Z,9.20
2019-03-19T11:32:46.017Z,8.07
2019-03-19T11:35:13.214Z,12.27
2019-03-19T11:37:40.024Z,11.90
2019-03-19T11:40:10.568Z,8.23
2019-03-19T11:42:37.204Z,13.97
2019-03-19T11:45:06.487Z,11.67
2019-03-19T11:47:33.446Z,14.40
2019-03-19T11:50:00.358Z,11.40
2019-03-19T11:52:27.100Z,9.80
2019-03-19T11:54:53.888Z,13.40
2019-03-19T11:57:20.795Z,11.47
2019-03-19T11:59:47.333Z,10.30
2019-03-19T12:02:13.980Z,10.20
2019-03-19T12:04:40.650Z,12.67
2019-03-19T12:07:07.302Z,14.37
2019-03-19T12:09:34.043Z,12.23
2019-03-19T12:12:00.686Z,10.80
2019-03-19T12:14:27.620Z,12.03
2019-03-19T12:16:54.836Z,16.57
2019-03-19T12:19:21.474Z,11.53
2019-03-19T12:21:48.190Z,11.60
2019-03-19T12:24:15.075Z,8.10
2019-03-19T12:26:41.933Z,13.70
2019-03-19T12:29:08.695Z,15.97
2019-03-19T12:31:35.314Z,9.63
2019-03-19T12:34:02.054Z,6.13
2019-03-19T12:36:29.102Z,10.20
2019-03-19T12:38:56.558Z,10.03
2019-03-19T12:41:23.554Z,11.77
2019-03-19T12:43:50.638Z,11.47
2019-03-19T12:46:17.560Z,11.60
2019-03-19T12:48:47.391Z,12.37
2019-03-19T12:51:14.046Z,9.70
2019-03-19T12:53:40.832Z,9.97
2019-03-19T12:56:07.836Z,9.50
2019-03-19T12:58:35.806Z,10.23
2019-03-19T13:01:03.227Z,13.13
2019-03-19T13:03:30.026Z,16.57
2019-03-19T13:05:56.891Z,11.60
2019-03-19T13:08:29.981Z,9.90
2019-03-19T13:10:57.855Z,9.40
2019-03-19T13:13:24.563Z,10.60
2019-03-19T13:15:51.309Z,8.53
2019-03-19T13:18:18.025Z,11.00
2019-03-19T13:20:45.599Z,8.43
2019-03-19T13:23:12.340Z,6.97
2019-03-19T13:25:39.047Z,12.97
2019-03-19T13:28:05.621Z,8.97
2019-03-19T13:30:32.671Z,12.30
2019-03-19T13:32:59.629Z,8.07
2019-03-19T13:35:27.055Z,8.60
2019-03-19T13:37:55.655Z,10.87
2019-03-19T13:40:22.581Z,7.27
2019-03-19T13:42:49.537Z,7.70
2019-03-19T13:45:20.388Z,8.90
2019-03-19T13:47:47.135Z,6.60
2019-03-19T13:50:15.955Z,7.37
2019-03-19T13:52:42.937Z,7.03
2019-03-19T13:55:17.107Z,7.63
2019-03-19T13:57:43.955Z,8.07
2019-03-19T14:00:14.934Z,10.80
2019-03-19T14:02:42.095Z,11.37
2019-03-19T14:05:10.093Z,9.73
2019-03-19T14:07:37.228Z,8.47
2019-03-19T14:10:07.831Z,13.47
2019-03-19T14:12:34.583Z,11.43
2019-03-19T14:15:05.311Z,11.67
2019-03-19T14:17:32.048Z,8.53
2019-03-19T14:19:58.769Z,10.67
2019-03-19T14:22:25.313Z,6.63
2019-03-19T14:24:52.087Z,7.87
2019-03-19T14:27:18.829Z,12.47
2019-03-19T14:29:45.571Z,11.70
2019-03-19T14:32:12.199Z,11.70
2019-03-19T14:34:38.903Z,7.70
2019-03-19T14:37:05.795Z,10.70
2019-03-19T14:39:32.827Z,10.10
2019-03-19T14:41:59.628Z,7.73
2019-03-19T14:44:26.597Z,9.80
2019-03-19T14:46:53.357Z,11.13
2019-03-19T14:49:19.997Z,11.10
2019-03-19T14:52:00.205Z,13.03
2019-03-19T14:54:26.864Z,11.37
2019-03-19T14:56:53.541Z,12.73
2019-03-19T14:59:20.357Z,12.77
2019-03-19T15:01:47.027Z,23.27
2019-03-19T15:04:13.868Z,9.63
2019-03-19T15:06:40.539Z,15.03
2019-03-19T15:09:08.389Z,9.53
2019-03-19T15:11:35.677Z,14.30
2019-03-19T15:14:02.705Z,9.70
2019-03-19T15:16:29.377Z,16.77
2019-03-19T15:18:55.999Z,11.03
2019-03-19T15:21:22.869Z,8.20
2019-03-19T15:23:49.729Z,9.97
2019-03-19T15:26:16.566Z,10.77
2019-03-19T15:28:43.467Z,8.77
2019-03-19T15:31:12.173Z,12.27
2019-03-19T15:33:38.934Z,10.13
2019-03-19T15:36:06.558Z,9.20
2019-03-19T15:38:33.091Z,11.37
2019-03-19T15:40:59.844Z,11.83
2019-03-19T15:43:26.451Z,12.73
2019-03-19T15:45:53.093Z,16.87
2019-03-19T15:48:19.719Z,13.63
2019-03-19T15:50:46.651Z,16.63
2019-03-19T15:53:13.385Z,13.67
2019-03-19T15:55:40.083Z,10.50
2019-03-19T15:58:06.830Z,15.87
2019-03-19T16:00:33.713Z,15.97
2019-03-19T16:03:00.346Z,13.57
2019-03-19T16:05:27.081Z,13.63
2019-03-19T16:07:53.839Z,13.53
2019-03-19T16:10:20.545Z,17.20
2019-03-19T16:12:47.404Z,10.77
2019-03-19T16:15:16.031Z,17.90
2019-03-19T16:17:42.847Z,11.87
2019-03-19T16:20:14.297Z,17.47
2019-03-19T16:22:40.945Z,13.77
2019-03-19T16:25:07.785Z,14.20
2019-03-19T16:27:34.395Z,11.23
2019-03-19T16:30:01.405Z,11.33
2019-03-19T16:32:28.444Z,12.60
2019-03-19T16:34:55.155Z,11.07
2019-03-19T16:37:21.815Z,16.80
2019-03-19T16:39:50.103Z,11.90
2019-03-19T16:42:16.945Z,9.43
2019-03-19T16:44:43.467Z,14.67
2019-03-19T16:47:10.222Z,10.97
2019-03-19T16:49:36.845Z,9.63
2019-03-19T16:52:04.391Z,9.97
2019-03-19T16:54:32.174Z,10.10
2019-03-19T16:56:59.074Z,9.67
2019-03-19T16:59:25.760Z,17.57
2019-03-19T17:02:01.492Z,10.50
2019-03-19T17:04:21.284Z,7.97
2019-03-19T17:06:47.952Z,8.77
2019-03-19T17:09:14.707Z,19.73
2019-03-19T17:11:41.681Z,12.97
2019-03-19T17:14:08.460Z,10.90
2019-03-19T17:16:35.128Z,14.33
2019-03-19T17:19:04.138Z,9.90
2019-03-19T17:21:31.489Z,11.63
2019-03-19T17:23:58.431Z,9.90
2019-03-19T17:26:25.236Z,13.37
2019-03-19T17:28:52.071Z,9.87
2019-03-19T17:31:18.982Z,15.27
2019-03-19T17:33:45.877Z,11.13
2019-03-19T17:36:12.482Z,14.57
2019-03-19T17:38:39.627Z,11.87
2019-03-19T17:41:06.292Z,13.73
2019-03-19T17:43:33.130Z,7.77
2019-03-19T17:46:00.500Z,11.67
2019-03-19T17:48:27.287Z,13.23
2019-03-19T17:50:55.150Z,9.17
2019-03-19T17:53:21.948Z,14.43
2019-03-19T17:55:48.754Z,10.43
2019-03-19T17:58:15.367Z,9.80
2019-03-19T18:00:49.999Z,14.07
2019-03-19T18:03:16.635Z,15.13
2019-03-19T18:05:43.428Z,16.07
2019-03-19T18:08:10.586Z,16.07
2019-03-19T18:10:39.648Z,13.27
2019-03-19T18:13:06.890Z,19.40
2019-03-19T18:15:34.112Z,12.30
2019-03-19T18:18:00.808Z,14.97
2019-03-19T18:20:27.428Z,16.37
2019-03-19T18:22:53.967Z,14.93
2019-03-19T18:25:20.726Z,15.20
2019-03-19T18:27:47.441Z,13.77
2019-03-19T18:30:21.948Z,11.60
2019-03-19T18:32:48.583Z,18.53
2019-03-19T18:35:15.502Z,14.23
2019-03-19T18:37:42.338Z,13.10
2019-03-19T18:40:13.566Z,13.57
2019-03-19T18:42:40.314Z,30.27
2019-03-19T18:45:13.856Z,19.23
2019-03-19T18:47:40.584Z,12.87
2019-03-19T18:50:13.042Z,13.97
2019-03-19T18:52:40.110Z,16.93
2019-03-19T18:55:07.483Z,15.30
2019-03-19T18:57:35.227Z,13.90
2019-03-19T19:00:03.690Z,11.70
2019-03-19T19:02:30.436Z,16.47
2019-03-19T19:04:57.086Z,15.23
2019-03-19T19:07:23.761Z,15.43
2019-03-19T19:09:50.464Z,17.77
2019-03-19T19:12:19.157Z,15.33
2019-03-19T19:14:45.946Z,17.17
2019-03-19T19:17:13.303Z,16.20
2019-03-19T19:19:40.187Z,13.70
2019-03-19T19:22:10.022Z,19.43
2019-03-19T19:24:37.771Z,16.07
2019-03-19T19:27:04.626Z,17.03
2019-03-19T19:29:31.260Z,16.53
2019-03-19T19:31:57.888Z,17.20
2019-03-19T19:34:25.587Z,18.33
2019-03-19T19:36:52.241Z,16.43
2019-03-19T19:39:18.998Z,20.00
2019-03-19T19:41:45.931Z,22.90
2019-03-19T19:44:12.824Z,18.60
2019-03-19T19:46:39.462Z,16.60
2019-03-19T19:49:06.226Z,19.07
2019-03-19T19:51:32.920Z,22.93
2019-03-19T19:53:59.982Z,16.83
2019-03-19T19:56:27.020Z,22.53
2019-03-19T19:58:55.790Z,13.00
2019-03-19T20:01:25.414Z,22.73
2019-03-19T20:03:52.371Z,19.70
2019-03-19T20:06:20.415Z,20.27
2019-03-19T20:08:47.014Z,18.03
2019-03-19T20:11:13.757Z,23.30
2019-03-19T20:13:40.621Z,12.13
2019-03-19T20:16:07.342Z,21.90
2019-03-19T20:18:34.107Z,19.73
2019-03-19T20:21:00.780Z,17.83
2019-03-19T20:23:27.698Z,29.23
2019-03-19T20:25:54.946Z,15.67
2019-03-19T20:28:23.848Z,16.33
2019-03-19T20:30:50.806Z,20.77
2019-03-19T20:33:24.795Z,21.37
2019-03-19T20:35:46.032Z,16.43
2019-03-19T20:38:13.734Z,21.60
2019-03-19T20:40:40.618Z,20.30
2019-03-19T20:43:07.280Z,18.73
2019-03-19T20:45:34.241Z,24.17
2019-03-19T20:48:01.012Z,17.10
2019-03-19T20:50:33.640Z,17.50
2019-03-19T20:53:00.590Z,19.03
2019-03-19T20:55:27.598Z,22.27
2019-03-19T20:57:54.348Z,20.07
2019-03-19T21:00:22.333Z,13.50
2019-03-19T21:02:49.381Z,19.30
2019-03-19T21:05:16.191Z,15.97
2019-03-19T21:07:45.071Z,19.10
2019-03-19T21:10:17.147Z,16.37
2019-03-19T21:12:43.985Z,17.90
2019-03-19T21:15:15.397Z,18.23
2019-03-19T21:17:42.446Z,14.97
2019-03-19T21:20:09.361Z,20.70
2019-03-19T21:22:36.391Z,16.97
2019-03-19T21:25:05.366Z,21.00
2019-03-19T21:27:32.498Z,18.97
2019-03-19T21:30:00.111Z,15.27
2019-03-19T21:32:26.960Z,19.43
2019-03-19T21:34:53.770Z,19.73
2019-03-19T21:37:20.586Z,16.67
2019-03-19T21:39:47.316Z,15.70
2019-03-19T21:42:14.013Z,17.20
2019-03-19T21:44:42.724Z,17.93
2019-03-19T21:47:09.695Z,15.97
2019-03-19T21:49:36.614Z,17.23
2019-03-19T21:52:03.419Z,18.13
2019-03-19T21:54:30.232Z,18.07
2019-03-19T21:56:56.961Z,16.17
2019-03-19T21:59:23.520Z,14.80
2019-03-19T22:01:50.334Z,19.37
2019-03-19T22:04:17.074Z,19.50
2019-03-19T22:06:43.955Z,20.10
2019-03-19T22:09:10.636Z,18.23
2019-03-19T22:11:37.331Z,16.07
2019-03-19T22:14:04.091Z,15.77
2019-03-19T22:16:30.842Z,18.17
2019-03-19T22:18:57.598Z,14.07
2019-03-19T22:21:24.244Z,17.87
2019-03-19T22:23:50.903Z,29.43
2019-03-19T22:26:17.588Z,16.57
2019-03-19T22:28:44.472Z,17.30
2019-03-19T22:31:11.100Z,26.30
2019-03-19T22:33:37.745Z,19.73
2019-03-19T22:36:04.603Z,20.23
2019-03-19T22:38:31.342Z,28.97
2019-03-19T22:40:58.003Z,17.80
2019-03-19T22:43:25.932Z,14.73
2019-03-19T22:45:53.045Z,16.10
2019-03-19T22:48:19.648Z,15.90
2019-03-19T22:50:46.610Z,19.60
2019-03-19T22:53:13.358Z,19.97
2019-03-19T22:55:40.047Z,19.17
2019-03-19T22:58:06.799Z,16.80
2019-03-19T23:00:38.578Z,21.90
2019-03-19T23:03:07.355Z,24.97
2019-03-19T23:05:35.192Z,20.50
2019-03-19T23:08:01.849Z,19.17
2019-03-19T23:10:29.624Z,15.03
2019-03-19T23:12:57.239Z,17.03
2019-03-19T23:15:23.921Z,25.43
2019-03-19T23:17:50.908Z,25.10
2019-03-19T23:20:18.030Z,20.23
2019-03-19T23:22:44.764Z,17.57
2019-03-19T23:25:12.357Z,16.77
2019-03-19T23:27:39.357Z,18.17
2019-03-19T23:30:16.167Z,19.40
2019-03-19T23:32:42.908Z,15.80
2019-03-19T23:35:09.743Z,24.20
2019-03-19T23:37:36.416Z,26.70
2019-03-19T23:40:08.054Z,18.03
2019-03-19T23:42:34.930Z,15.70
2019-03-19T23:45:01.907Z,16.97
2019-03-19T23:47:28.668Z,19.93
2019-03-19T23:49:55.386Z,19.50
2019-03-19T23:52:22.341Z,18.47
2019-03-19T23:54:49.101Z,15.07
2019-03-19T23:57:15.917Z,17.03
2019-03-19T23:59:42.817Z,20.40
